createdAt,value
2019-04-13T00:02:43.051Z,16.60
2019-04-13T00:05:15.844Z,16.20
2019-04-13T00:07:48.764Z,17.30
2019-04-13T00:10:42.460Z,15.85
2019-04-13T00:13:14.523Z,17.37
2019-04-13T00:15:46.683Z,16.95
2019-04-13T00:18:22.599Z,16.55
2019-04-13T00:20:52.716Z,16.95
2019-04-13T00:23:24.625Z,17.35
2019-04-13T00:25:56.723Z,17.20
2019-04-13T00:28:26.814Z,18.23
2019-04-13T00:31:11.687Z,17.48
2019-04-13T00:33:41.805Z,18.37
2019-04-13T00:36:12.896Z,18.00
2019-04-13T00:38:42.983Z,19.60
2019-04-13T00:41:14.007Z,18.32
2019-04-13T00:43:50.055Z,19.25
2019-04-13T00:46:20.183Z,17.62
2019-04-13T00:48:52.227Z,17.73
2019-04-13T00:51:22.303Z,18.37
2019-04-13T00:53:53.307Z,18.17
2019-04-13T00:56:24.381Z,19.37
2019-04-13T00:58:56.447Z,17.50
2019-04-13T01:01:26.531Z,19.40
2019-04-13T01:03:56.627Z,19.98
2019-04-13T01:06:29.519Z,17.90
2019-04-13T01:09:01.588Z,19.73
2019-04-13T01:11:31.683Z,20.32
2019-04-13T01:14:02.802Z,19.75
2019-04-13T01:16:37.955Z,19.70
2019-04-13T01:19:11.459Z,19.00
2019-04-13T01:21:41.939Z,18.37
2019-04-13T01:24:12.063Z,19.92
2019-04-13T01:26:43.077Z,19.90
2019-04-13T01:29:24.283Z,18.80
2019-04-13T01:31:54.372Z,19.95
2019-04-13T01:34:26.427Z,18.40
2019-04-13T01:36:57.490Z,20.20
2019-04-13T01:39:28.516Z,22.20
2019-04-13T01:41:58.623Z,19.62
2019-04-13T01:44:29.671Z,20.82
2019-04-13T01:46:59.762Z,20.30
2019-04-13T01:49:30.839Z,18.52
2019-04-13T01:52:00.951Z,19.92
2019-04-13T01:54:41.027Z,19.62
2019-04-13T01:57:11.119Z,20.82
2019-04-13T01:59:43.179Z,18.80
2019-04-13T02:02:17.639Z,19.00
2019-04-13T02:05:01.477Z,20.70
2019-04-13T02:07:37.835Z,19.35
2019-04-13T02:10:11.652Z,19.65
2019-04-13T02:12:43.727Z,19.32
2019-04-13T02:15:14.188Z,18.75
2019-04-13T02:17:46.275Z,20.17
2019-04-13T02:20:19.098Z,19.45
2019-04-13T02:23:01.108Z,19.98
2019-04-13T02:25:32.227Z,18.90
2019-04-13T02:28:03.238Z,18.90
2019-04-13T02:30:35.320Z,19.32
2019-04-13T02:33:07.361Z,18.05
2019-04-13T02:35:42.416Z,17.87
2019-04-13T02:38:12.549Z,19.60
2019-04-13T02:40:43.549Z,19.30
2019-04-13T02:43:13.675Z,18.95
2019-04-13T02:45:44.796Z,19.25
2019-04-13T02:48:15.883Z,18.80
2019-04-13T02:50:46.011Z,19.42
2019-04-13T02:53:16.135Z,20.30
2019-04-13T02:55:47.279Z,20.32
2019-04-13T02:58:17.391Z,19.35
2019-04-13T03:00:53.231Z,18.98
2019-04-13T03:03:29.039Z,18.82
2019-04-13T03:06:03.309Z,19.45
2019-04-13T03:08:34.927Z,18.87
2019-04-13T03:11:05.092Z,18.85
2019-04-13T03:13:36.147Z,17.50
2019-04-13T03:16:19.947Z,17.75
2019-04-13T03:19:00.549Z,17.65
2019-04-13T03:21:30.627Z,19.75
2019-04-13T03:24:06.599Z,18.75
2019-04-13T03:26:37.607Z,18.50
2019-04-13T03:29:07.695Z,19.10
2019-04-13T03:31:37.940Z,18.70
2019-04-13T03:34:15.771Z,17.07
2019-04-13T03:36:46.771Z,18.55
2019-04-13T03:39:16.879Z,16.62
2019-04-13T03:41:46.967Z,20.88
2019-04-13T03:44:18.059Z,18.10
2019-04-13T03:46:49.133Z,18.90
2019-04-13T03:49:19.283Z,17.37
2019-04-13T03:51:50.385Z,17.98
2019-04-13T03:54:28.471Z,19.30
2019-04-13T03:56:58.699Z,20.27
2019-04-13T03:59:28.807Z,19.65
2019-04-13T04:01:59.840Z,18.52
2019-04-13T04:04:30.899Z,18.92
2019-04-13T04:07:02.952Z,18.55
2019-04-13T04:09:33.113Z,18.37
2019-04-13T04:12:03.203Z,19.45
2019-04-13T04:14:35.965Z,20.52
2019-04-13T04:17:06.090Z,20.23
2019-04-13T04:19:38.100Z,18.82
2019-04-13T04:22:11.168Z,19.92
2019-04-13T04:24:43.245Z,19.95
2019-04-13T04:27:14.325Z,20.77
2019-04-13T04:29:44.399Z,21.75
2019-04-13T04:32:15.496Z,20.55
2019-04-13T04:34:45.644Z,21.80
2019-04-13T04:37:17.779Z,20.70
2019-04-13T04:39:48.926Z,20.72
2019-04-13T04:42:19.015Z,19.92
2019-04-13T04:44:49.104Z,19.37
2019-04-13T04:47:19.219Z,20.25
2019-04-13T04:49:49.323Z,21.25
2019-04-13T04:52:21.374Z,22.07
2019-04-13T04:54:53.494Z,21.25
2019-04-13T04:57:25.539Z,21.23
2019-04-13T04:59:56.604Z,22.05
2019-04-13T05:02:27.612Z,20.02
2019-04-13T05:04:57.720Z,19.55
2019-04-13T05:07:34.692Z,20.05
2019-04-13T05:10:11.973Z,20.95
2019-04-13T05:12:44.340Z,20.92
2019-04-13T05:15:15.468Z,20.82
2019-04-13T05:17:45.584Z,20.88
2019-04-13T05:20:19.752Z,20.80
2019-04-13T05:22:49.841Z,20.55
2019-04-13T05:25:19.948Z,21.42
2019-04-13T05:27:50.999Z,19.75
2019-04-13T05:30:22.041Z,20.52
2019-04-13T05:32:52.124Z,21.85
2019-04-13T05:35:23.232Z,19.07
2019-04-13T05:37:54.244Z,20.27
2019-04-13T05:40:24.356Z,20.57
2019-04-13T05:42:55.393Z,23.57
2019-04-13T05:45:26.444Z,20.27
2019-04-13T05:47:58.526Z,21.02
2019-04-13T05:50:28.656Z,21.60
2019-04-13T05:53:02.741Z,19.98
2019-04-13T05:55:36.449Z,20.65
2019-04-13T05:58:06.564Z,19.77
2019-04-13T06:00:37.623Z,20.27
2019-04-13T06:03:07.744Z,21.82
2019-04-13T06:05:38.844Z,20.88
2019-04-13T06:08:08.976Z,20.40
2019-04-13T06:10:39.079Z,19.87
2019-04-13T06:13:10.156Z,20.77
2019-04-13T06:15:40.275Z,20.57
2019-04-13T06:18:20.716Z,20.60
2019-04-13T06:20:45.247Z,21.90
2019-04-13T06:23:22.187Z,21.65
2019-04-13T06:25:54.302Z,21.17
2019-04-13T06:28:26.036Z,20.35
2019-04-13T06:31:12.297Z,21.37
2019-04-13T06:33:52.813Z,20.35
2019-04-13T06:36:23.891Z,21.33
2019-04-13T06:39:00.334Z,21.30
2019-04-13T06:41:30.493Z,20.12
2019-04-13T06:44:01.304Z,20.05
2019-04-13T06:46:31.468Z,20.20
2019-04-13T06:49:01.561Z,19.95
2019-04-13T06:51:31.645Z,20.27
2019-04-13T06:54:01.774Z,20.85
2019-04-13T06:56:31.872Z,20.60
2019-04-13T06:59:03.010Z,20.32
2019-04-13T07:01:33.110Z,20.48
2019-04-13T07:04:03.209Z,21.00
2019-04-13T07:06:33.441Z,21.85
2019-04-13T07:09:07.440Z,21.37
2019-04-13T07:11:40.149Z,21.02
2019-04-13T07:14:12.780Z,20.92
2019-04-13T07:16:56.348Z,21.07
2019-04-13T07:19:28.371Z,19.20
2019-04-13T07:21:58.544Z,20.70
2019-04-13T07:24:29.463Z,21.57
2019-04-13T07:26:59.719Z,21.75
2019-04-13T07:29:30.855Z,21.02
2019-04-13T07:32:01.697Z,20.50
2019-04-13T07:34:33.929Z,20.72
2019-04-13T07:37:05.072Z,21.52
2019-04-13T07:39:35.151Z,20.82
2019-04-13T07:42:07.365Z,20.17
2019-04-13T07:44:40.083Z,20.40
2019-04-13T07:47:20.399Z,20.25
2019-04-13T07:50:09.012Z,19.70
2019-04-13T07:52:39.044Z,20.70
2019-04-13T07:55:09.272Z,18.95
2019-04-13T07:57:39.368Z,20.17
2019-04-13T08:00:10.100Z,18.80
2019-04-13T08:02:41.152Z,20.85
2019-04-13T08:05:12.268Z,19.90
2019-04-13T08:07:49.764Z,19.55
2019-04-13T08:10:14.936Z,17.67
2019-04-13T08:12:46.053Z,18.40
2019-04-13T08:15:16.312Z,19.20
2019-04-13T08:17:46.971Z,19.00
2019-04-13T08:20:24.620Z,18.77
2019-04-13T08:22:56.775Z,18.15
2019-04-13T08:25:26.880Z,20.10
2019-04-13T08:27:57.156Z,18.40
2019-04-13T08:30:29.123Z,18.60
2019-04-13T08:33:01.164Z,16.60
2019-04-13T08:35:31.460Z,18.03
2019-04-13T08:38:12.505Z,15.80
2019-04-13T08:40:35.857Z,15.10
2019-04-13T08:43:06.908Z,17.57
2019-04-13T08:45:44.362Z,17.20
2019-04-13T08:48:14.661Z,16.77
2019-04-13T08:50:45.704Z,14.90
2019-04-13T08:53:16.798Z,16.40
2019-04-13T08:55:47.864Z,16.10
2019-04-13T08:58:19.659Z,15.30
2019-04-13T09:00:56.582Z,15.23
2019-04-13T09:03:27.670Z,16.30
2019-04-13T09:05:59.676Z,15.90
2019-04-13T09:08:33.144Z,16.07
2019-04-13T09:11:02.210Z,16.20
2019-04-13T09:13:34.473Z,16.13
2019-04-13T09:16:06.542Z,15.80
2019-04-13T09:18:48.334Z,16.30
2019-04-13T09:21:32.440Z,15.77
2019-04-13T09:24:02.540Z,15.10
2019-04-13T09:26:36.277Z,15.67
2019-04-13T09:29:07.064Z,15.33
2019-04-13T09:31:37.200Z,15.07
2019-04-13T09:34:10.338Z,15.87
2019-04-13T09:36:40.016Z,15.70
2019-04-13T09:39:10.304Z,15.77
2019-04-13T09:41:40.424Z,16.67
2019-04-13T09:44:12.164Z,15.77
2019-04-13T09:46:42.544Z,16.40
2019-04-13T09:49:13.204Z,15.63
2019-04-13T09:51:47.080Z,16.10
2019-04-13T09:54:16.240Z,15.57
2019-04-13T09:56:47.340Z,15.63
2019-04-13T09:59:17.452Z,15.97
2019-04-13T10:01:48.720Z,16.73
2019-04-13T10:04:18.812Z,15.23
2019-04-13T10:06:49.864Z,16.07
2019-04-13T10:09:19.968Z,15.10
2019-04-13T10:11:58.213Z,15.63
2019-04-13T10:14:36.121Z,16.50
2019-04-13T10:17:08.752Z,14.93
2019-04-13T10:19:40.101Z,16.40
2019-04-13T10:22:11.679Z,15.33
2019-04-13T10:24:42.696Z,15.77
2019-04-13T10:27:19.424Z,16.90
2019-04-13T10:29:52.012Z,15.67
2019-04-13T10:32:22.288Z,14.80
2019-04-13T10:34:52.387Z,16.17
2019-04-13T10:37:23.789Z,16.37
2019-04-13T10:39:54.880Z,14.93
2019-04-13T10:42:26.614Z,15.83
2019-04-13T10:45:15.264Z,16.37
2019-04-13T10:48:04.444Z,15.70
2019-04-13T10:50:40.304Z,16.57
2019-04-13T10:53:11.444Z,17.30
2019-04-13T10:55:41.592Z,16.30
2019-04-13T10:58:12.594Z,18.07
2019-04-13T11:00:48.855Z,17.13
2019-04-13T11:03:21.168Z,17.10
2019-04-13T11:05:53.112Z,16.90
2019-04-13T11:08:24.189Z,17.57
2019-04-13T11:10:54.268Z,17.50
2019-04-13T11:13:25.293Z,17.37
2019-04-13T11:15:56.416Z,17.67
2019-04-13T11:18:28.529Z,17.33
2019-04-13T11:20:58.628Z,16.23
2019-04-13T11:23:36.002Z,18.30
2019-04-13T11:26:03.236Z,16.33
2019-04-13T11:28:33.532Z,16.80
2019-04-13T11:31:05.572Z,16.30
2019-04-13T11:33:35.672Z,17.33
2019-04-13T11:36:07.519Z,16.17
2019-04-13T11:38:39.204Z,17.27
2019-04-13T11:41:20.948Z,16.83
2019-04-13T11:44:09.268Z,17.50
2019-04-13T11:46:49.884Z,17.17
2019-04-13T11:49:24.300Z,17.00
2019-04-13T11:51:56.404Z,16.50
2019-04-13T11:54:44.745Z,17.60
2019-04-13T11:57:15.856Z,17.70
2019-04-13T11:59:46.912Z,17.53
2019-04-13T12:02:26.697Z,18.50
2019-04-13T12:05:06.678Z,17.90
2019-04-13T12:07:47.473Z,17.60
2019-04-13T12:10:36.390Z,18.83
2019-04-13T12:13:13.804Z,17.57
2019-04-13T12:15:45.548Z,17.93
2019-04-13T12:18:25.741Z,17.40
2019-04-13T12:20:59.488Z,19.07
2019-04-13T12:23:30.598Z,18.13
2019-04-13T12:26:01.756Z,16.97
2019-04-13T12:28:32.002Z,18.13
2019-04-13T12:31:03.056Z,18.03
2019-04-13T12:33:33.132Z,18.77
2019-04-13T12:36:03.247Z,18.33
2019-04-13T12:38:33.380Z,17.37
2019-04-13T12:41:07.101Z,17.70
2019-04-13T12:43:38.180Z,18.43
2019-04-13T12:46:10.304Z,17.23
2019-04-13T12:48:41.432Z,18.93
2019-04-13T12:51:12.598Z,17.97
2019-04-13T12:53:42.684Z,17.60
2019-04-13T12:56:13.020Z,18.13
2019-04-13T12:58:45.044Z,16.73
2019-04-13T13:01:24.396Z,18.77
2019-04-13T13:03:56.440Z,20.00
2019-04-13T13:06:31.653Z,17.93
2019-04-13T13:09:01.570Z,17.83
2019-04-13T13:11:31.721Z,16.30
2019-04-13T13:14:02.778Z,18.43
2019-04-13T13:16:34.800Z,17.73
2019-04-13T13:19:05.876Z,18.47
2019-04-13T13:21:38.484Z,18.40
2019-04-13T13:24:07.756Z,17.90
2019-04-13T13:26:47.777Z,17.97
2019-04-13T13:29:12.165Z,17.63
2019-04-13T13:31:42.264Z,18.23
2019-04-13T13:34:13.313Z,18.57
2019-04-13T13:36:43.406Z,17.20
2019-04-13T13:39:14.774Z,16.33
2019-04-13T13:41:49.020Z,18.03
2019-04-13T13:44:22.004Z,16.10
2019-04-13T13:46:53.044Z,18.10
2019-04-13T13:49:30.965Z,17.57
2019-04-13T13:52:05.684Z,15.97
2019-04-13T13:54:33.784Z,16.67
2019-04-13T13:57:05.811Z,18.47
2019-04-13T13:59:35.928Z,19.00
2019-04-13T14:02:12.953Z,17.07
2019-04-13T14:04:43.316Z,18.83
2019-04-13T14:07:13.440Z,18.17
2019-04-13T14:09:47.160Z,16.93
2019-04-13T14:12:17.265Z,17.20
2019-04-13T14:14:48.305Z,16.70
2019-04-13T14:17:18.913Z,18.60
2019-04-13T14:19:51.004Z,17.97
2019-04-13T14:22:22.044Z,16.60
2019-04-13T14:24:53.100Z,18.10
2019-04-13T14:27:25.132Z,17.70
2019-04-13T14:29:55.230Z,17.97
2019-04-13T14:32:25.364Z,18.43
2019-04-13T14:35:00.416Z,17.70
2019-04-13T14:37:31.458Z,17.60
2019-04-13T14:40:03.491Z,16.93
2019-04-13T14:42:34.352Z,17.33
2019-04-13T14:45:08.340Z,17.60
2019-04-13T14:47:39.386Z,17.60
2019-04-13T14:50:10.680Z,18.63
2019-04-13T14:52:46.432Z,17.00
2019-04-13T14:55:16.616Z,17.67
2019-04-13T14:57:46.704Z,18.30
2019-04-13T15:00:21.147Z,18.60
2019-04-13T15:02:51.012Z,18.93
2019-04-13T15:05:24.016Z,18.63
2019-04-13T15:07:58.772Z,18.43
2019-04-13T15:10:29.532Z,18.03
2019-04-13T15:13:01.942Z,17.70
2019-04-13T15:15:36.664Z,18.00
2019-04-13T15:18:17.833Z,19.23
2019-04-13T15:20:49.407Z,18.20
2019-04-13T15:23:21.428Z,18.13
2019-04-13T15:25:53.399Z,16.97
2019-04-13T15:28:28.757Z,17.53
2019-04-13T15:31:00.184Z,18.60
2019-04-13T15:33:30.541Z,20.13
2019-04-13T15:36:04.715Z,18.47
2019-04-13T15:38:42.841Z,17.27
2019-04-13T15:41:14.198Z,20.30
2019-04-13T15:43:45.333Z,18.57
2019-04-13T15:46:21.389Z,18.13
2019-04-13T15:48:49.952Z,18.03
2019-04-13T15:51:24.393Z,18.37
2019-04-13T15:53:54.450Z,17.43
2019-04-13T15:56:27.427Z,18.73
2019-04-13T15:58:59.454Z,18.43
2019-04-13T16:01:32.443Z,18.33
2019-04-13T16:04:03.250Z,17.47
2019-04-13T16:06:35.853Z,18.40
2019-04-13T16:09:12.610Z,19.03
2019-04-13T16:11:58.060Z,18.40
2019-04-13T16:14:24.829Z,18.60
2019-04-13T16:16:56.612Z,18.40
2019-04-13T16:19:29.227Z,20.10
2019-04-13T16:22:00.496Z,18.42
2019-04-13T16:24:33.160Z,18.15
2019-04-13T16:27:05.641Z,19.45
2019-04-13T16:29:57.663Z,17.70
2019-04-13T16:32:36.865Z,18.48
2019-04-13T16:35:14.176Z,18.30
2019-04-13T16:37:50.824Z,18.30
2019-04-13T16:40:22.787Z,18.15
2019-04-13T16:42:55.168Z,17.80
2019-04-13T16:45:39.432Z,16.55
2019-04-13T16:48:23.203Z,18.55
2019-04-13T16:51:22.661Z,20.62
2019-04-13T16:53:53.913Z,17.75
2019-04-13T16:56:43.675Z,18.27
2019-04-13T16:59:32.237Z,17.32
2019-04-13T17:02:11.043Z,18.00
2019-04-13T17:04:42.833Z,18.20
2019-04-13T17:07:13.325Z,19.15
2019-04-13T17:09:44.313Z,18.07
2019-04-13T17:12:26.616Z,17.70
2019-04-13T17:14:52.051Z,18.82
2019-04-13T17:17:28.537Z,15.85
2019-04-13T17:20:00.289Z,17.05
2019-04-13T17:22:32.962Z,15.68
2019-04-13T17:25:07.838Z,18.02
2019-04-13T17:28:07.429Z,17.92
2019-04-13T17:30:43.187Z,17.20
2019-04-13T17:33:12.911Z,17.85
2019-04-13T17:35:43.873Z,16.30
2019-04-13T17:38:15.637Z,18.50
2019-04-13T17:40:49.797Z,17.02
2019-04-13T17:43:38.751Z,18.57
2019-04-13T17:46:17.715Z,18.65
2019-04-13T17:49:00.600Z,17.30
2019-04-13T17:51:33.465Z,16.73
2019-04-13T17:54:15.308Z,18.05
2019-04-13T17:56:51.345Z,17.12
2019-04-13T17:59:40.724Z,18.20
2019-04-13T18:02:15.552Z,16.32
2019-04-13T18:04:50.004Z,16.77
2019-04-13T18:07:37.289Z,18.92
2019-04-13T18:10:21.350Z,16.35
2019-04-13T18:12:58.275Z,20.00
2019-04-13T18:15:34.740Z,19.65
2019-04-13T18:18:24.757Z,19.75
2019-04-13T18:20:57.131Z,18.57
2019-04-13T18:23:29.640Z,17.95
2019-04-13T18:26:01.312Z,17.82
2019-04-13T18:28:42.207Z,17.95
2019-04-13T18:31:12.792Z,18.25
2019-04-13T18:33:45.377Z,18.02
2019-04-13T18:36:32.075Z,16.50
2019-04-13T18:39:09.205Z,19.40
2019-04-13T18:41:41.706Z,17.50
2019-04-13T18:44:13.686Z,16.60
2019-04-13T18:46:52.656Z,19.07
2019-04-13T18:49:23.892Z,19.10
2019-04-13T18:51:54.399Z,18.92
2019-04-13T18:54:25.879Z,18.23
2019-04-13T18:57:02.598Z,18.73
2019-04-13T18:59:48.834Z,18.20
2019-04-13T19:02:19.900Z,17.87
2019-04-13T19:04:54.908Z,19.15
2019-04-13T19:07:26.008Z,18.80
2019-04-13T19:09:58.072Z,17.82
2019-04-13T19:12:35.371Z,18.05
2019-04-13T19:15:07.677Z,20.65
2019-04-13T19:17:39.004Z,20.43
2019-04-13T19:20:14.960Z,19.67
2019-04-13T19:22:46.020Z,18.73
2019-04-13T19:25:18.102Z,18.65
2019-04-13T19:27:49.124Z,18.48
2019-04-13T19:30:21.212Z,20.23
2019-04-13T19:32:52.248Z,19.00
2019-04-13T19:35:30.398Z,20.52
2019-04-13T19:38:09.408Z,19.48
2019-04-13T19:40:43.504Z,21.10
2019-04-13T19:43:16.542Z,19.75
2019-04-13T19:45:53.993Z,19.42
2019-04-13T19:48:24.972Z,20.15
2019-04-13T19:50:57.157Z,20.82
2019-04-13T19:53:45.765Z,21.50
2019-04-13T19:56:23.282Z,21.05
2019-04-13T19:58:54.632Z,22.07
2019-04-13T20:01:28.536Z,21.42
2019-04-13T20:04:00.644Z,20.75
2019-04-13T20:06:30.736Z,20.10
2019-04-13T20:09:09.178Z,22.70
2019-04-13T20:11:40.252Z,19.95
2019-04-13T20:14:14.697Z,21.30
2019-04-13T20:16:43.257Z,22.13
2019-04-13T20:19:15.550Z,20.72
2019-04-13T20:21:47.656Z,20.92
2019-04-13T20:24:20.289Z,22.07
2019-04-13T20:26:51.381Z,23.02
2019-04-13T20:29:25.358Z,22.13
2019-04-13T20:32:08.170Z,22.17
2019-04-13T20:34:40.157Z,22.50
2019-04-13T20:37:12.118Z,21.97
2019-04-13T20:39:48.134Z,21.35
2019-04-13T20:42:22.047Z,23.45
2019-04-13T20:44:50.065Z,21.93
2019-04-13T20:47:22.360Z,22.77
2019-04-13T20:49:53.606Z,22.90
2019-04-13T20:52:23.697Z,22.67
2019-04-13T20:54:55.894Z,23.40
2019-04-13T20:57:26.124Z,20.48
2019-04-13T20:59:56.604Z,24.72
2019-04-13T21:02:26.781Z,22.25
2019-04-13T21:04:58.812Z,23.47
2019-04-13T21:07:29.216Z,21.45
2019-04-13T21:10:01.289Z,24.52
2019-04-13T21:12:33.312Z,21.90
2019-04-13T21:15:05.411Z,21.30
2019-04-13T21:17:42.409Z,22.80
2019-04-13T21:20:19.392Z,22.50
2019-04-13T21:22:52.910Z,22.82
2019-04-13T21:25:25.517Z,23.62
2019-04-13T21:28:02.409Z,22.45
2019-04-13T21:30:33.986Z,20.62
2019-04-13T21:33:04.186Z,24.30
2019-04-13T21:35:36.221Z,20.20
2019-04-13T21:38:06.416Z,21.52
2019-04-13T21:40:36.592Z,20.90
2019-04-13T21:43:08.428Z,23.27
2019-04-13T21:45:45.333Z,21.95
2019-04-13T21:48:15.505Z,21.37
2019-04-13T21:51:03.094Z,23.80
2019-04-13T21:53:42.113Z,22.22
2019-04-13T21:56:14.373Z,21.95
2019-04-13T21:58:46.963Z,21.50
2019-04-13T22:01:35.068Z,20.92
2019-04-13T22:04:07.360Z,21.40
2019-04-13T22:06:40.937Z,20.40
2019-04-13T22:09:13.049Z,21.33
2019-04-13T22:11:51.438Z,21.70
2019-04-13T22:14:35.320Z,21.68
2019-04-13T22:17:05.338Z,19.60
2019-04-13T22:19:37.472Z,20.15
2019-04-13T22:22:09.662Z,21.62
2019-04-13T22:24:39.964Z,20.90
2019-04-13T22:27:16.247Z,20.85
2019-04-13T22:29:53.100Z,19.60
2019-04-13T22:32:27.773Z,18.95
2019-04-13T22:35:04.381Z,23.15
2019-04-13T22:37:34.560Z,19.82
2019-04-13T22:40:06.884Z,20.15
2019-04-13T22:42:40.710Z,21.02
2019-04-13T22:45:15.208Z,19.52
2019-04-13T22:47:54.146Z,20.45
2019-04-13T22:50:26.812Z,18.67
2019-04-13T22:53:12.420Z,19.87
2019-04-13T22:56:00.565Z,20.72
2019-04-13T22:58:38.321Z,20.17
2019-04-13T23:01:18.489Z,21.55
2019-04-13T23:03:55.340Z,19.92
2019-04-13T23:06:33.434Z,18.75
2019-04-13T23:09:06.298Z,20.15
2019-04-13T23:11:36.673Z,20.20
2019-04-13T23:14:08.950Z,20.40
2019-04-13T23:16:41.284Z,20.30
2019-04-13T23:19:13.233Z,21.23
2019-04-13T23:21:50.544Z,18.95
2019-04-13T23:24:21.596Z,21.07
2019-04-13T23:26:53.693Z,20.00
2019-04-13T23:29:34.668Z,20.20
2019-04-13T23:32:07.260Z,20.27
2019-04-13T23:34:43.051Z,19.87
2019-04-13T23:37:13.371Z,19.77
2019-04-13T23:39:43.471Z,19.65
2019-04-13T23:42:15.535Z,22.27
2019-04-13T23:44:46.460Z,19.57
2019-04-13T23:47:18.631Z,20.10
2019-04-13T23:49:49.296Z,20.88
2019-04-13T23:52:26.114Z,22.25
2019-04-13T23:54:56.667Z,21.57
2019-04-13T23:57:44.359Z,20.48
